createdAt,value
2023-04-05T00:01:37.567Z,8.27
2023-04-05T00:04:05.207Z,7.43
2023-04-05T00:06:31.845Z,7.33
2023-04-05T00:08:59.530Z,6.17
2023-04-05T00:11:27.778Z,6.53
2023-04-05T00:13:54.230Z,5.43
2023-04-05T00:16:20.849Z,5.60
2023-04-05T00:18:51.492Z,7.17
2023-04-05T00:21:22.383Z,8.70
2023-04-05T00:23:53.367Z,7.10
2023-04-05T00:26:20.663Z,7.63
2023-04-05T00:28:48.173Z,5.50
2023-04-05T00:31:14.606Z,8.23
2023-04-05T00:33:41.048Z,6.43
2023-04-05T00:36:15.218Z,5.03
2023-04-05T00:38:43.494Z,8.23
2023-04-05T00:41:11.285Z,7.60
2023-04-05T00:43:38.286Z,8.70
2023-04-05T00:46:06.125Z,9.30
2023-04-05T00:48:33.614Z,9.80
2023-04-05T00:51:00.174Z,9.07
2023-04-05T00:53:29.964Z,10.00
2023-04-05T00:55:57.299Z,7.60
2023-04-05T00:58:24.369Z,7.90
2023-04-05T01:01:16.669Z,9.90
2023-04-05T01:03:56.178Z,7.90
2023-04-05T01:06:33.894Z,9.17
2023-04-05T01:09:17.986Z,10.53
2023-04-05T01:11:47.121Z,9.87
2023-04-05T01:14:14.098Z,5.53
2023-04-05T01:16:40.653Z,7.30
2023-04-05T01:19:09.921Z,8.13
2023-04-05T01:21:38.938Z,5.10
2023-04-05T01:24:27.036Z,7.03
2023-04-05T01:27:16.486Z,7.63
2023-04-05T01:30:07.657Z,5.03
2023-04-05T01:33:05.778Z,7.73
2023-04-05T01:35:39.970Z,9.13
2023-04-05T01:38:10.348Z,7.83
2023-04-05T01:40:38.387Z,7.33
2023-04-05T01:43:23.100Z,6.37
2023-04-05T01:45:49.546Z,7.70
2023-04-05T01:48:16.188Z,5.07
2023-04-05T01:50:42.993Z,7.03
2023-04-05T01:53:10.095Z,5.27
2023-04-05T01:55:36.720Z,6.17
2023-04-05T01:58:03.157Z,6.27
2023-04-05T02:00:29.663Z,5.43
2023-04-05T02:02:56.210Z,7.43
2023-04-05T02:05:22.711Z,6.83
2023-04-05T02:07:49.158Z,6.03
2023-04-05T02:10:15.927Z,5.67
2023-04-05T02:12:42.632Z,7.57
2023-04-05T02:15:09.582Z,5.13
2023-04-05T02:17:39.426Z,7.60
2023-04-05T02:20:07.742Z,4.00
2023-04-05T02:22:34.425Z,6.40
2023-04-05T02:25:01.409Z,7.27
2023-04-05T02:27:27.855Z,6.87
2023-04-05T02:29:55.762Z,5.47
2023-04-05T02:32:22.180Z,6.30
2023-04-05T02:34:48.692Z,5.73
2023-04-05T02:37:15.126Z,7.30
2023-04-05T02:39:41.748Z,7.77
2023-04-05T02:42:08.174Z,7.63
2023-04-05T02:44:34.625Z,8.43
2023-04-05T02:47:01.008Z,7.57
2023-04-05T02:49:27.397Z,10.77
2023-04-05T02:51:55.762Z,9.83
2023-04-05T02:54:22.326Z,8.50
2023-04-05T02:56:49.976Z,7.87
2023-04-05T02:59:17.747Z,6.73
2023-04-05T03:01:44.848Z,6.47
2023-04-05T03:04:12.258Z,10.93
2023-04-05T03:06:38.778Z,7.67
2023-04-05T03:09:05.279Z,6.57
2023-04-05T03:11:33.625Z,7.40
2023-04-05T03:14:00.577Z,5.17
2023-04-05T03:16:27.443Z,9.73
2023-04-05T03:18:53.932Z,8.93
2023-04-05T03:21:21.193Z,7.67
2023-04-05T03:23:48.417Z,6.03
2023-04-05T03:26:14.871Z,8.20
2023-04-05T03:28:44.961Z,7.50
2023-04-05T03:31:11.801Z,7.33
2023-04-05T03:33:38.491Z,8.17
2023-04-05T03:36:06.147Z,6.73
2023-04-05T03:38:32.644Z,8.90
2023-04-05T03:40:59.146Z,10.57
2023-04-05T03:43:25.666Z,13.67
2023-04-05T03:45:52.657Z,9.97
2023-04-05T03:48:20.303Z,8.83
2023-04-05T03:50:47.301Z,8.93
2023-04-05T03:53:13.900Z,10.77
2023-04-05T03:55:40.556Z,11.33
2023-04-05T03:58:07.685Z,9.97
2023-04-05T04:00:34.127Z,6.83
2023-04-05T04:03:01.282Z,10.13
2023-04-05T04:05:27.836Z,5.77
2023-04-05T04:07:54.300Z,5.43
2023-04-05T04:10:20.988Z,9.23
2023-04-05T04:12:47.421Z,8.30
2023-04-05T04:15:13.903Z,7.77
2023-04-05T04:17:40.397Z,8.87
2023-04-05T04:20:11.274Z,7.93
2023-04-05T04:22:40.303Z,10.27
2023-04-05T04:25:11.095Z,9.90
2023-04-05T04:27:43.007Z,8.57
2023-04-05T04:30:11.817Z,7.73
2023-04-05T04:32:58.713Z,7.43
2023-04-05T04:35:27.878Z,12.67
2023-04-05T04:37:59.679Z,9.47
2023-04-05T04:40:40.165Z,6.37
2023-04-05T04:43:10.009Z,12.37
2023-04-05T04:45:38.020Z,10.47
2023-04-05T04:48:05.286Z,9.77
2023-04-05T04:50:32.530Z,8.63
2023-04-05T04:53:00.110Z,8.20
2023-04-05T04:55:27.559Z,8.37
2023-04-05T04:57:54.943Z,10.40
2023-04-05T05:00:23.865Z,9.30
2023-04-05T05:02:52.448Z,7.73
2023-04-05T05:05:23.308Z,10.43
2023-04-05T05:07:50.598Z,6.63
2023-04-05T05:10:17.300Z,11.53
2023-04-05T05:12:43.967Z,9.80
2023-04-05T05:15:11.373Z,8.97
2023-04-05T05:17:39.380Z,8.33
2023-04-05T05:20:10.843Z,8.37
2023-04-05T05:22:39.045Z,8.27
2023-04-05T05:25:07.292Z,8.37
2023-04-05T05:27:36.341Z,17.77
2023-04-05T05:30:03.751Z,8.17
2023-04-05T05:32:30.403Z,5.60
2023-04-05T05:34:56.831Z,6.73
2023-04-05T05:37:30.814Z,8.03
2023-04-05T05:39:57.597Z,7.43
2023-04-05T05:42:24.034Z,6.20
2023-04-05T05:44:50.494Z,7.77
2023-04-05T05:47:17.007Z,8.37
2023-04-05T05:49:43.457Z,5.97
2023-04-05T05:52:10.155Z,5.97
2023-04-05T05:54:36.640Z,7.23
2023-04-05T05:57:03.422Z,10.77
2023-04-05T05:59:29.959Z,6.33
2023-04-05T06:01:56.507Z,7.80
2023-04-05T06:04:23.063Z,7.50
2023-04-05T06:06:49.574Z,7.77
2023-04-05T06:09:16.855Z,7.33
2023-04-05T06:11:49.722Z,7.60
2023-04-05T06:14:22.541Z,6.60
2023-04-05T06:16:48.988Z,7.22
2023-04-05T06:19:15.392Z,8.18
2023-04-05T06:21:41.747Z,9.32
2023-04-05T06:24:08.403Z,8.88
2023-04-05T06:26:34.924Z,7.50
2023-04-05T06:29:01.338Z,5.57
2023-04-05T06:31:31.855Z,7.63
2023-04-05T06:33:58.366Z,7.38
2023-04-05T06:36:27.355Z,5.00
2023-04-05T06:38:54.077Z,7.18
2023-04-05T06:41:20.504Z,5.30
2023-04-05T06:43:46.945Z,6.57
2023-04-05T06:46:14.108Z,6.68
2023-04-05T06:48:40.721Z,7.63
2023-04-05T06:51:07.298Z,7.18
2023-04-05T06:53:33.741Z,14.77
2023-04-05T06:56:00.466Z,9.90
2023-04-05T06:58:27.518Z,9.73
2023-04-05T07:00:54.837Z,7.95
2023-04-05T07:03:21.430Z,6.18
2023-04-05T07:05:56.832Z,24.88
2023-04-05T07:08:23.681Z,6.15
2023-04-05T07:10:51.059Z,9.07
2023-04-05T07:13:19.400Z,11.43
2023-04-05T07:15:46.234Z,10.50
2023-04-05T07:18:15.793Z,9.15
2023-04-05T07:20:42.657Z,9.73
2023-04-05T07:23:09.489Z,8.50
2023-04-05T07:25:36.153Z,8.67
2023-04-05T07:28:02.604Z,7.67
2023-04-05T07:30:29.055Z,6.10
2023-04-05T07:32:55.786Z,9.37
2023-04-05T07:35:22.310Z,7.80
2023-04-05T07:37:48.746Z,8.73
2023-04-05T07:40:15.748Z,9.20
2023-04-05T07:42:42.346Z,10.00
2023-04-05T07:45:09.163Z,9.30
2023-04-05T07:47:35.907Z,8.57
2023-04-05T07:50:03.247Z,6.97
2023-04-05T07:52:29.890Z,7.03
2023-04-05T07:54:56.752Z,11.27
2023-04-05T07:57:23.269Z,7.33
2023-04-05T07:59:53.081Z,9.73
2023-04-05T08:02:19.558Z,10.13
2023-04-05T08:04:46.364Z,6.97
2023-04-05T08:07:13.023Z,9.63
2023-04-05T08:09:40.196Z,6.77
2023-04-05T08:12:06.881Z,10.37
2023-04-05T08:14:33.369Z,7.70
2023-04-05T08:16:59.872Z,8.60
2023-04-05T08:19:26.464Z,7.83
2023-04-05T08:21:53.088Z,10.37
2023-04-05T08:24:19.809Z,9.83
2023-04-05T08:26:46.310Z,8.73
2023-04-05T08:29:12.768Z,7.97
2023-04-05T08:31:39.263Z,6.77
2023-04-05T08:34:08.426Z,7.87
2023-04-05T08:36:35.047Z,7.70
2023-04-05T08:39:01.511Z,8.00
2023-04-05T08:41:36.370Z,6.00
2023-04-05T08:44:07.044Z,7.90
2023-04-05T08:46:34.810Z,7.97
2023-04-05T08:49:07.399Z,10.00
2023-04-05T08:51:37.532Z,8.50
2023-04-05T08:54:04.921Z,8.77
2023-04-05T08:56:35.935Z,7.73
2023-04-05T08:59:07.272Z,6.63
2023-04-05T09:01:38.022Z,7.77
2023-04-05T09:04:12.047Z,7.80
2023-04-05T09:06:39.146Z,9.60
2023-04-05T09:09:09.319Z,6.10
2023-04-05T09:11:36.120Z,7.47
2023-04-05T09:14:04.962Z,6.97
2023-04-05T09:16:34.123Z,8.80
2023-04-05T09:19:00.669Z,6.18
2023-04-05T09:21:29.388Z,7.70
2023-04-05T09:23:56.269Z,8.27
2023-04-05T09:26:24.586Z,8.30
2023-04-05T09:28:51.519Z,8.60
2023-04-05T09:31:35.350Z,10.45
2023-04-05T09:34:05.940Z,7.43
2023-04-05T09:36:36.291Z,8.45
2023-04-05T09:39:09.885Z,10.00
2023-04-05T09:41:36.997Z,10.23
2023-04-05T09:44:03.718Z,8.55
2023-04-05T09:46:37.217Z,10.30
2023-04-05T09:49:06.596Z,8.07
2023-04-05T09:51:35.677Z,9.77
2023-04-05T09:54:10.030Z,9.95
2023-04-05T09:56:39.176Z,9.80
2023-04-05T09:59:11.546Z,62.75
2023-04-05T10:01:44.701Z,9.00
2023-04-05T10:04:11.383Z,34.28
2023-04-05T10:06:43.038Z,9.48
2023-04-05T10:09:11.557Z,7.90
2023-04-05T10:11:39.130Z,9.02
2023-04-05T10:14:07.850Z,10.50
2023-04-05T10:16:46.280Z,7.80
2023-04-05T10:19:26.600Z,9.00
2023-04-05T10:21:54.999Z,9.77
2023-04-05T10:24:27.344Z,10.05
2023-04-05T10:27:08.228Z,6.60
2023-04-05T10:29:48.791Z,9.20
2023-04-05T10:32:30.221Z,9.63
2023-04-05T10:35:17.720Z,8.57
2023-04-05T10:37:58.745Z,7.32
2023-04-05T10:40:30.392Z,7.68
2023-04-05T10:42:56.922Z,9.00
2023-04-05T10:45:25.426Z,7.20
2023-04-05T10:47:59.203Z,8.68
2023-04-05T10:50:25.741Z,8.27
2023-04-05T10:52:53.516Z,9.00
2023-04-05T10:55:21.706Z,9.27
2023-04-05T10:57:49.981Z,10.32
2023-04-05T11:00:17.773Z,8.57
2023-04-05T11:02:44.598Z,11.77
2023-04-05T11:05:32.451Z,8.30
2023-04-05T11:08:09.236Z,9.93
2023-04-05T11:10:37.581Z,9.73
2023-04-05T11:13:06.434Z,9.02
2023-04-05T11:15:34.405Z,10.15
2023-04-05T11:18:24.326Z,9.57
2023-04-05T11:21:05.884Z,9.75
2023-04-05T11:23:32.420Z,11.25
2023-04-05T11:26:06.295Z,7.20
2023-04-05T11:28:39.467Z,10.13
2023-04-05T11:31:29.354Z,7.38
2023-04-05T11:34:00.129Z,9.73
2023-04-05T11:36:52.849Z,9.70
2023-04-05T11:39:19.409Z,9.18
2023-04-05T11:42:06.639Z,9.13
2023-04-05T11:44:43.383Z,7.13
2023-04-05T11:47:11.476Z,8.18
2023-04-05T11:49:39.110Z,9.57
2023-04-05T11:52:14.250Z,9.70
2023-04-05T11:54:46.137Z,8.65
2023-04-05T11:57:15.174Z,9.73
2023-04-05T11:59:42.185Z,7.47
2023-04-05T12:02:09.259Z,7.35
2023-04-05T12:04:37.283Z,9.05
2023-04-05T12:07:14.165Z,9.82
2023-04-05T12:09:59.324Z,11.27
2023-04-05T12:12:25.966Z,6.78
2023-04-05T12:14:59.233Z,9.20
2023-04-05T12:17:43.150Z,7.15
2023-04-05T12:20:11.314Z,6.90
2023-04-05T12:22:38.605Z,6.35
2023-04-05T12:25:05.716Z,9.07
2023-04-05T12:27:32.472Z,8.23
2023-04-05T12:30:06.573Z,8.32
2023-04-05T12:32:43.343Z,9.52
2023-04-05T12:35:18.184Z,8.63
2023-04-05T12:37:44.890Z,8.43
2023-04-05T12:40:11.914Z,8.05
2023-04-05T12:42:40.354Z,8.45
2023-04-05T12:45:12.855Z,8.57
2023-04-05T12:47:56.708Z,7.80
2023-04-05T12:50:28.954Z,9.38
2023-04-05T12:53:00.524Z,8.73
2023-04-05T12:55:29.588Z,8.05
2023-04-05T12:57:59.918Z,8.80
2023-04-05T13:00:29.445Z,7.90
2023-04-05T13:02:58.439Z,8.18
2023-04-05T13:05:27.431Z,8.27
2023-04-05T13:07:54.048Z,9.98
2023-04-05T13:10:22.157Z,8.52
2023-04-05T13:12:49.051Z,13.02
2023-04-05T13:15:16.729Z,8.25
2023-04-05T13:17:50.342Z,9.63
2023-04-05T13:20:17.907Z,9.07
2023-04-05T13:22:45.281Z,7.45
2023-04-05T13:25:11.852Z,7.25
2023-04-05T13:27:38.269Z,9.43
2023-04-05T13:30:05.309Z,9.35
2023-04-05T13:32:32.936Z,10.85
2023-04-05T13:34:59.447Z,8.70
2023-04-05T13:37:26.423Z,12.02
2023-04-05T13:39:52.876Z,9.40
2023-04-05T13:42:19.378Z,9.95
2023-04-05T13:44:45.799Z,10.48
2023-04-05T13:47:14.827Z,8.48
2023-04-05T13:49:41.493Z,9.65
2023-04-05T13:52:08.198Z,7.55
2023-04-05T13:54:34.761Z,6.60
2023-04-05T13:57:01.292Z,8.40
2023-04-05T13:59:27.832Z,9.20
2023-04-05T14:01:54.452Z,10.43
2023-04-05T14:04:21.089Z,6.88
2023-04-05T14:06:47.542Z,17.42
2023-04-05T14:09:14.033Z,9.63
2023-04-05T14:11:40.600Z,10.30
2023-04-05T14:14:07.024Z,10.07
2023-04-05T14:16:33.957Z,7.72
2023-04-05T14:19:00.577Z,9.60
2023-04-05T14:21:27.468Z,7.38
2023-04-05T14:23:57.041Z,7.82
2023-04-05T14:26:25.772Z,8.80
2023-04-05T14:28:52.643Z,8.65
2023-04-05T14:31:20.476Z,7.85
2023-04-05T14:33:46.999Z,8.35
2023-04-05T14:36:13.497Z,6.88
2023-04-05T14:38:39.987Z,7.25
2023-04-05T14:41:06.642Z,7.20
2023-04-05T14:43:33.098Z,8.30
2023-04-05T14:45:59.614Z,6.60
2023-04-05T14:48:27.963Z,7.97
2023-04-05T14:50:54.427Z,6.90
2023-04-05T14:53:21.363Z,9.35
2023-04-05T14:55:47.788Z,6.78
2023-04-05T14:58:14.653Z,6.35
2023-04-05T15:00:41.557Z,7.90
2023-04-05T15:03:08.916Z,5.95
2023-04-05T15:05:36.603Z,6.65
2023-04-05T15:08:03.077Z,7.43
2023-04-05T15:10:29.587Z,6.30
2023-04-05T15:12:56.582Z,6.07
2023-04-05T15:15:22.996Z,7.22
2023-04-05T15:17:49.518Z,6.60
2023-04-05T15:20:16.160Z,5.30
2023-04-05T15:22:43.583Z,7.20
2023-04-05T15:25:10.764Z,5.63
2023-04-05T15:27:37.185Z,8.20
2023-04-05T15:30:04.089Z,13.95
2023-04-05T15:32:33.704Z,6.05
2023-04-05T15:35:01.108Z,6.78
2023-04-05T15:37:28.048Z,5.63
2023-04-05T15:39:54.653Z,7.20
2023-04-05T15:42:21.956Z,5.60
2023-04-05T15:44:49.189Z,7.88
2023-04-05T15:47:16.106Z,3.78
2023-04-05T15:49:43.547Z,8.25
2023-04-05T15:52:11.329Z,5.28
2023-04-05T15:54:37.955Z,6.65
2023-04-05T15:57:04.470Z,6.10
2023-04-05T15:59:30.988Z,6.07
2023-04-05T16:01:57.510Z,6.25
2023-04-05T16:04:24.738Z,5.28
2023-04-05T16:06:51.185Z,5.53
2023-04-05T16:09:17.616Z,6.47
2023-04-05T16:11:44.128Z,3.58
2023-04-05T16:14:11.563Z,5.60
2023-04-05T16:16:50.394Z,5.93
2023-04-05T16:19:23.191Z,7.05
2023-04-05T16:21:51.041Z,5.50
2023-04-05T16:24:17.503Z,3.95
2023-04-05T16:26:43.952Z,5.60
2023-04-05T16:29:10.398Z,4.93
2023-04-05T16:31:37.974Z,5.18
2023-04-05T16:34:04.586Z,4.38
2023-04-05T16:36:31.135Z,5.75
2023-04-05T16:38:57.580Z,5.05
2023-04-05T16:41:24.042Z,4.13
2023-04-05T16:43:51.648Z,4.10
2023-04-05T16:46:18.627Z,4.13
2023-04-05T16:48:45.472Z,4.82
2023-04-05T16:51:12.888Z,4.43
2023-04-05T16:53:39.489Z,5.07
2023-04-05T16:56:06.276Z,4.00
2023-04-05T16:58:32.745Z,6.88
2023-04-05T17:01:00.309Z,8.48
2023-04-05T17:03:27.334Z,3.72
2023-04-05T17:05:54.003Z,4.68
2023-04-05T17:08:20.464Z,5.53
2023-04-05T17:10:47.412Z,6.15
2023-04-05T17:13:14.875Z,5.20
2023-04-05T17:15:41.610Z,7.25
2023-04-05T17:18:08.729Z,4.20
2023-04-05T17:20:35.394Z,5.32
2023-04-05T17:23:01.848Z,7.68
2023-04-05T17:25:28.473Z,4.00
2023-04-05T17:27:54.895Z,5.45
2023-04-05T17:30:21.729Z,4.45
2023-04-05T17:32:48.273Z,4.45
2023-04-05T17:35:14.817Z,5.30
2023-04-05T17:37:41.275Z,4.47
2023-04-05T17:40:08.378Z,6.18
2023-04-05T17:42:34.863Z,5.38
2023-04-05T17:45:01.427Z,4.38
2023-04-05T17:47:28.146Z,4.22
2023-04-05T17:49:54.696Z,5.53
2023-04-05T17:52:22.650Z,3.50
2023-04-05T17:54:49.225Z,5.25
2023-04-05T17:57:16.012Z,5.85
2023-04-05T17:59:42.904Z,5.55
2023-04-05T18:02:12.818Z,8.40
2023-04-05T18:04:40.157Z,6.88
2023-04-05T18:07:07.638Z,6.38
2023-04-05T18:09:36.943Z,6.15
2023-04-05T18:12:03.732Z,4.72
2023-04-05T18:14:30.559Z,3.95
2023-04-05T18:16:57.116Z,4.45
2023-04-05T18:19:23.603Z,6.18
2023-04-05T18:21:50.301Z,4.10
2023-04-05T18:24:17.542Z,4.75
2023-04-05T18:26:44.096Z,5.10
2023-04-05T18:29:10.675Z,3.35
2023-04-05T18:31:37.152Z,4.95
2023-04-05T18:34:07.345Z,4.20
2023-04-05T18:36:33.828Z,4.97
2023-04-05T18:39:05.222Z,5.30
2023-04-05T18:41:32.094Z,5.25
2023-04-05T18:43:59.303Z,5.80
2023-04-05T18:46:26.371Z,5.38
2023-04-05T18:48:54.813Z,5.75
2023-04-05T18:51:22.760Z,5.40
2023-04-05T18:53:49.763Z,4.57
2023-04-05T18:56:16.656Z,5.20
2023-04-05T18:58:43.989Z,7.75
2023-04-05T19:01:14.394Z,9.52
2023-04-05T19:03:41.197Z,8.43
2023-04-05T19:06:07.657Z,6.75
2023-04-05T19:08:34.180Z,7.32
2023-04-05T19:11:00.675Z,8.20
2023-04-05T19:13:27.288Z,9.93
2023-04-05T19:15:53.778Z,7.80
2023-04-05T19:18:22.944Z,8.95
2023-04-05T19:20:53.191Z,11.90
2023-04-05T19:23:19.601Z,14.05
2023-04-05T19:25:46.379Z,9.13
2023-04-05T19:28:12.831Z,12.00
2023-04-05T19:30:40.478Z,14.55
2023-04-05T19:33:07.126Z,11.82
2023-04-05T19:35:33.703Z,12.13
2023-04-05T19:38:00.221Z,13.68
2023-04-05T19:40:26.978Z,13.75
2023-04-05T19:42:53.557Z,12.43
2023-04-05T19:45:25.886Z,11.40
2023-04-05T19:47:53.782Z,11.82
2023-04-05T19:50:48.194Z,12.48
2023-04-05T19:53:38.266Z,10.13
2023-04-05T19:56:14.273Z,11.80
2023-04-05T19:58:42.205Z,13.57
2023-04-05T20:01:09.251Z,13.02
2023-04-05T20:03:40.848Z,14.10
2023-04-05T20:06:14.746Z,12.57
2023-04-05T20:08:43.067Z,14.40
2023-04-05T20:11:12.219Z,12.60
2023-04-05T20:13:44.792Z,13.70
2023-04-05T20:16:13.171Z,12.20
2023-04-05T20:18:41.153Z,14.77
2023-04-05T20:21:07.711Z,13.27
2023-04-05T20:23:38.065Z,14.80
2023-04-05T20:26:07.081Z,15.00
2023-04-05T20:28:37.861Z,11.77
2023-04-05T20:31:18.928Z,14.03
2023-04-05T20:33:45.960Z,14.17
2023-04-05T20:36:13.319Z,14.90
2023-04-05T20:38:41.693Z,12.73
2023-04-05T20:41:09.720Z,12.90
2023-04-05T20:43:36.238Z,13.93
2023-04-05T20:46:04.173Z,13.77
2023-04-05T20:48:31.750Z,11.73
2023-04-05T20:50:59.953Z,13.40
2023-04-05T20:53:27.892Z,11.37
2023-04-05T20:55:55.004Z,11.10
2023-04-05T20:58:21.891Z,9.23
2023-04-05T21:00:48.573Z,10.97
2023-04-05T21:03:15.179Z,12.17
2023-04-05T21:05:41.823Z,12.10
2023-04-05T21:08:08.386Z,27.80
2023-04-05T21:10:34.843Z,17.57
2023-04-05T21:13:01.312Z,18.97
2023-04-05T21:15:34.998Z,15.37
2023-04-05T21:18:02.580Z,17.80
2023-04-05T21:20:29.101Z,161.97
2023-04-05T21:22:59.179Z,134.23
2023-04-05T21:25:26.142Z,55.53
2023-04-05T21:27:52.637Z,27.80
2023-04-05T21:30:19.120Z,37.73
2023-04-05T21:32:45.579Z,82.17
2023-04-05T21:35:12.262Z,51.43
2023-04-05T21:37:38.729Z,41.10
2023-04-05T21:40:07.002Z,20.83
2023-04-05T21:42:33.752Z,19.27
2023-04-05T21:45:00.241Z,15.97
2023-04-05T21:47:26.827Z,18.60
2023-04-05T21:49:53.324Z,16.47
2023-04-05T21:52:20.237Z,18.60
2023-04-05T21:54:46.792Z,15.13
2023-04-05T21:57:13.563Z,15.97
2023-04-05T21:59:40.686Z,12.87
2023-04-05T22:02:07.642Z,13.23
2023-04-05T22:04:35.346Z,15.17
2023-04-05T22:07:01.784Z,12.40
2023-04-05T22:09:28.560Z,11.97
2023-04-05T22:11:55.146Z,13.57
2023-04-05T22:14:21.711Z,15.93
2023-04-05T22:16:48.210Z,16.67
2023-04-05T22:19:14.735Z,16.00
2023-04-05T22:21:41.345Z,13.67
2023-04-05T22:24:08.540Z,17.57
2023-04-05T22:26:35.092Z,14.43
2023-04-05T22:29:02.430Z,15.07
2023-04-05T22:31:28.910Z,14.43
2023-04-05T22:33:55.783Z,14.77
2023-04-05T22:36:22.345Z,14.33
2023-04-05T22:38:48.763Z,18.83
2023-04-05T22:41:15.257Z,11.60
2023-04-05T22:43:41.690Z,13.17
2023-04-05T22:46:08.210Z,15.47
2023-04-05T22:48:34.772Z,15.00
2023-04-05T22:51:01.295Z,12.07
2023-04-05T22:53:28.554Z,12.23
2023-04-05T22:55:54.963Z,12.57
2023-04-05T22:58:22.456Z,14.80
2023-04-05T23:00:49.015Z,16.40
2023-04-05T23:03:15.439Z,17.93
2023-04-05T23:05:42.026Z,12.47
2023-04-05T23:08:08.509Z,11.23
2023-04-05T23:10:34.938Z,11.90
2023-04-05T23:13:01.669Z,12.93
2023-04-05T23:15:28.138Z,17.33
2023-04-05T23:17:54.593Z,13.57
2023-04-05T23:20:21.168Z,17.37
2023-04-05T23:22:48.043Z,16.67
2023-04-05T23:25:14.531Z,14.97
2023-04-05T23:27:41.099Z,14.70
2023-04-05T23:30:08.129Z,14.03
2023-04-05T23:32:34.626Z,15.73
2023-04-05T23:35:01.135Z,17.13
2023-04-05T23:37:27.665Z,12.83
2023-04-05T23:39:54.309Z,10.23
2023-04-05T23:42:20.743Z,12.43
2023-04-05T23:44:47.194Z,12.80
2023-04-05T23:47:13.632Z,12.90
2023-04-05T23:49:40.111Z,17.70
2023-04-05T23:52:06.676Z,14.60
2023-04-05T23:54:33.151Z,13.87
2023-04-05T23:56:59.690Z,13.40
2023-04-05T23:59:26.524Z,14.43
